Aviation Digital Data Service (ADDS)

Output produced by METARs form (0857 UTC 18 February 2019)
found at http://www.aviationweather.gov/metar/data/
 
Forecast for: FNLU (LUANDA/4 DE FEVE, AO)
Text: TAF FNLU 180500Z 1806/1912 14005KT 9000 FEW018 BKN050
Forecast period: 0600 to 2000 UTC 18 February 2019
Forecast type: FROM: standard forecast or significant change
Winds: from the SE (140 degrees) at 6 MPH (5 knots; 2.6 m/s)
Visibility: 6 miles (9 km)
Ceiling: 5000 feet AGL
Clouds: few clouds at 1800 feet AGL
broken clouds at 5000 feet AGL
Weather: no significant weather forecast for this period
Text: TEMPO 1812/1816 27009KT 8000 -DZ
Forecast period: 1200 to 1600 UTC 18 February 2019
Forecast type: TEMPORARY: The following changes expected for less than half the time period
Winds: from the W (270 degrees) at 10 MPH (9 knots; 4.6 m/s)
Visibility: 5 miles (8 km)
Ceiling: unknown
Clouds: missing
Weather: -DZ  (light drizzle)
Text: BECMG 1820/1822 20007KT 9999 FEW020 SCT050
Forecast period: 2000 UTC 18 February 2019 to 1200 UTC 19 February 2019
Forecast type: BECOMING: Conditions expected to become as follows by 2200 UTC 18 February 2019
Winds: from the SSW (200 degrees) at 8 MPH (7 knots; 3.6 m/s)
Visibility: 6 or more miles 10+ km)
Ceiling: at least 12,000 feet AGL
Clouds: few clouds at 2000 feet AGL
scattered clouds at 5000 feet AGL
Weather: no significant weather forecast for this period